createdAt,value
2017-10-12T00:00:19.511Z,82
2017-10-12T00:00:45.682Z,81.9
2017-10-12T00:01:11.829Z,81.81
2017-10-12T00:01:37.982Z,81.81
2017-10-12T00:02:04.130Z,81.9
2017-10-12T00:02:30.273Z,81.71
2017-10-12T00:02:56.413Z,81.71
2017-10-12T00:03:22.562Z,81.9
2017-10-12T00:03:48.699Z,82
2017-10-12T00:04:14.853Z,81.71
2017-10-12T00:04:41.011Z,81.9
2017-10-12T00:05:07.190Z,81.71
2017-10-12T00:05:33.334Z,81.81
2017-10-12T00:05:59.492Z,81.71
2017-10-12T00:06:25.628Z,82
2017-10-12T00:06:51.804Z,82
2017-10-12T00:07:17.954Z,81.9
2017-10-12T00:07:44.102Z,82
2017-10-12T00:08:10.247Z,81.71
2017-10-12T00:08:36.390Z,81.9
2017-10-12T00:09:02.543Z,81.81
2017-10-12T00:09:28.686Z,82.09
2017-10-12T00:09:54.834Z,81.9
2017-10-12T00:10:20.980Z,82.19
2017-10-12T00:10:47.119Z,82.09
2017-10-12T00:11:13.279Z,81.9
2017-10-12T00:11:39.428Z,82
2017-10-12T00:12:05.576Z,81.81
2017-10-12T00:12:31.718Z,81.81
2017-10-12T00:12:57.889Z,81.9
2017-10-12T00:13:24.026Z,81.81
2017-10-12T00:13:50.184Z,82
2017-10-12T00:14:16.329Z,82
2017-10-12T00:14:42.481Z,82.09
2017-10-12T00:15:08.614Z,82.19
2017-10-12T00:15:34.730Z,82.38
2017-10-12T00:16:00.860Z,82.29
2017-10-12T00:16:26.995Z,82.29
2017-10-12T00:16:53.116Z,82.86
2017-10-12T00:17:19.241Z,82.96
2017-10-12T00:17:45.400Z,82.38
2017-10-12T00:18:11.518Z,82
2017-10-12T00:18:37.647Z,82.38
2017-10-12T00:19:03.772Z,82.19
2017-10-12T00:19:29.898Z,82.86
2017-10-12T00:19:56.018Z,82.29
2017-10-12T00:20:22.142Z,82.57
2017-10-12T00:20:48.261Z,82.67
2017-10-12T00:21:14.392Z,82.48
2017-10-12T00:21:40.509Z,82.57
2017-10-12T00:22:06.638Z,82.67
2017-10-12T00:22:32.754Z,83.05
2017-10-12T00:22:58.875Z,82.67
2017-10-12T00:23:25.003Z,82.86
2017-10-12T00:23:51.121Z,83.05
2017-10-12T00:24:17.249Z,83.34
2017-10-12T00:24:43.374Z,83.53
2017-10-12T00:25:09.495Z,83.72
2017-10-12T00:25:35.612Z,84.2
2017-10-12T00:26:01.742Z,83.63
2017-10-12T00:26:27.865Z,84.49
2017-10-12T00:26:53.982Z,84.39
2017-10-12T00:27:20.105Z,84.49
2017-10-12T00:27:46.227Z,84.39
2017-10-12T00:28:12.354Z,84.58
2017-10-12T00:28:38.477Z,84.58
2017-10-12T00:29:04.596Z,84.97
2017-10-12T00:29:30.745Z,84.68
2017-10-12T00:29:56.858Z,84.68
2017-10-12T00:30:22.982Z,84.39
2017-10-12T00:30:49.124Z,84.78
2017-10-12T00:31:15.245Z,85.16
2017-10-12T00:31:41.403Z,85.25
2017-10-12T00:32:07.524Z,85.54
2017-10-12T00:32:33.641Z,85.74
2017-10-12T00:32:59.768Z,86.41
2017-10-12T00:33:25.895Z,86.21
2017-10-12T00:33:52.034Z,87.17
2017-10-12T00:34:18.176Z,87.17
2017-10-12T00:34:44.298Z,86.88
2017-10-12T00:35:10.419Z,87.17
2017-10-12T00:35:36.545Z,86.98
2017-10-12T00:36:02.661Z,87.08
2017-10-12T00:36:28.782Z,87.17
2017-10-12T00:36:54.907Z,87.08
2017-10-12T00:37:21.027Z,86.98
2017-10-12T00:37:47.162Z,87.17
2017-10-12T00:38:13.281Z,86.41
2017-10-12T00:38:39.406Z,86.69
2017-10-12T00:39:05.532Z,86.88
2017-10-12T00:39:31.654Z,86.79
2017-10-12T00:39:57.772Z,86.69
2017-10-12T00:40:23.898Z,86.69
2017-10-12T00:40:50.021Z,87.08
2017-10-12T00:41:16.148Z,86.88
2017-10-12T00:41:42.273Z,86.69
2017-10-12T00:42:08.389Z,86.98
2017-10-12T00:42:34.515Z,87.17
2017-10-12T00:43:00.641Z,86.6
2017-10-12T00:43:26.757Z,87.08
2017-10-12T00:43:52.885Z,87.46
2017-10-12T00:44:19.005Z,87.27
2017-10-12T00:44:45.124Z,88.32
2017-10-12T00:45:11.271Z,87.65
2017-10-12T00:45:37.396Z,88.9
2017-10-12T00:46:03.533Z,89.37
2017-10-12T00:46:29.640Z,89.18
2017-10-12T00:46:55.758Z,89.37
2017-10-12T00:47:21.886Z,89.09
2017-10-12T00:47:48.007Z,89.47
2017-10-12T00:48:14.155Z,89.57
2017-10-12T00:48:40.283Z,90.14
2017-10-12T00:49:06.411Z,89.76
2017-10-12T00:49:32.529Z,89.57
2017-10-12T00:49:58.651Z,89.57
2017-10-12T00:50:24.779Z,89.86
2017-10-12T00:50:50.896Z,90.48
2017-10-12T00:51:17.022Z,90.53
2017-10-12T00:51:43.149Z,91
2017-10-12T00:52:09.283Z,90.39
2017-10-12T00:52:35.394Z,91.15
2017-10-12T00:53:01.520Z,91.34
2017-10-12T00:53:27.641Z,91.67
2017-10-12T00:53:53.757Z,91.86
2017-10-12T00:54:19.879Z,91.34
2017-10-12T00:54:46.012Z,91.29
2017-10-12T00:55:12.129Z,91.96
2017-10-12T00:55:38.257Z,91.96
2017-10-12T00:56:04.410Z,92.49
2017-10-12T00:56:30.527Z,93.35
2017-10-12T00:56:56.649Z,94.12
2017-10-12T00:57:22.776Z,93.64
2017-10-12T00:57:48.900Z,93.74
2017-10-12T00:58:15.022Z,94.21
2017-10-12T00:58:41.142Z,94.98
2017-10-12T00:59:07.263Z,95.17
2017-10-12T00:59:33.391Z,95.27
2017-10-12T00:59:59.513Z,94.89
2017-10-12T01:00:25.630Z,95.46
2017-10-12T01:00:51.757Z,95.65
2017-10-12T01:01:17.885Z,95.75
2017-10-12T01:01:43.999Z,96.42
2017-10-12T01:02:10.127Z,95.75
2017-10-12T01:02:36.241Z,96.42
2017-10-12T01:03:02.367Z,96.42
2017-10-12T01:03:28.486Z,96.22
2017-10-12T01:03:54.607Z,96.51
2017-10-12T01:04:20.734Z,97.04
2017-10-12T01:04:46.851Z,97.71
2017-10-12T01:05:12.979Z,97.9
2017-10-12T01:05:39.103Z,98.19
2017-10-12T01:06:05.220Z,98.38
2017-10-12T01:06:31.347Z,98.47
2017-10-12T01:06:57.466Z,98.86
2017-10-12T01:07:23.592Z,99.52
2017-10-12T01:07:49.757Z,99.62
2017-10-12T01:08:15.871Z,99.43
2017-10-12T01:08:41.996Z,99.62
2017-10-12T01:09:08.117Z,99.99
2017-10-12T01:09:34.244Z,99.43
2017-10-12T01:10:00.361Z,99.99
2017-10-12T01:10:26.488Z,99.99
2017-10-12T01:10:52.604Z,99.99
2017-10-12T01:11:18.731Z,99.99
2017-10-12T01:11:44.878Z,99.99
2017-10-12T01:12:10.996Z,99.99
2017-10-12T01:12:37.121Z,99.99
2017-10-12T01:13:03.268Z,99.99
2017-10-12T01:13:29.397Z,99.99
2017-10-12T01:13:55.512Z,99.99
2017-10-12T01:14:21.639Z,99.99
2017-10-12T01:14:47.757Z,99.99
2017-10-12T01:15:13.883Z,99.99
2017-10-12T01:15:40.001Z,99.99
2017-10-12T01:16:06.124Z,99.99
2017-10-12T01:16:32.251Z,99.99
2017-10-12T01:16:58.367Z,99.99
2017-10-12T01:17:24.494Z,99.99
2017-10-12T01:17:50.621Z,99.99
2017-10-12T01:18:16.742Z,99.99
2017-10-12T01:18:42.866Z,99.99
2017-10-12T01:19:08.985Z,99.99
2017-10-12T01:19:35.125Z,99.99
2017-10-12T01:20:01.247Z,99.99
2017-10-12T01:20:27.375Z,99.99
2017-10-12T01:20:53.493Z,99.99
2017-10-12T01:21:19.621Z,99.99
2017-10-12T01:21:45.738Z,99.99
2017-10-12T01:22:11.884Z,99.99
2017-10-12T01:22:38.010Z,99.99
2017-10-12T01:23:04.153Z,99.99
2017-10-12T01:23:30.276Z,99.99
2017-10-12T01:23:56.395Z,99.99
2017-10-12T01:24:22.521Z,99.99
2017-10-12T01:24:48.644Z,99.99
2017-10-12T01:25:14.783Z,99.99
2017-10-12T01:25:40.904Z,99.99
2017-10-12T01:26:07.025Z,99.99
2017-10-12T01:26:33.152Z,99.99
2017-10-12T01:26:59.277Z,99.99
2017-10-12T01:27:25.399Z,99.99
2017-10-12T01:27:51.515Z,99.99
2017-10-12T01:28:17.640Z,99.99
2017-10-12T01:28:43.773Z,99.99
2017-10-12T01:29:09.920Z,99.99
2017-10-12T01:29:36.049Z,99.99
2017-10-12T01:30:02.187Z,99.99
2017-10-12T01:30:28.310Z,99.99
2017-10-12T01:30:54.455Z,99.99
2017-10-12T01:31:20.584Z,99.99
2017-10-12T01:31:46.712Z,99.99
2017-10-12T01:32:12.829Z,99.99
2017-10-12T01:32:38.953Z,99.99
2017-10-12T01:33:05.074Z,99.99
2017-10-12T01:33:31.194Z,99.99
2017-10-12T01:33:57.316Z,99.99
2017-10-12T01:34:23.447Z,99.99
2017-10-12T01:34:49.566Z,99.99
2017-10-12T01:35:15.695Z,99.99
2017-10-12T01:35:41.803Z,99.99
2017-10-12T01:36:07.925Z,99.99
2017-10-12T01:36:34.074Z,99.99
2017-10-12T01:37:00.196Z,99.99
2017-10-12T01:37:26.315Z,99.99
2017-10-12T01:37:52.435Z,99.99
2017-10-12T01:38:18.563Z,99.99
2017-10-12T01:38:44.681Z,99.99
2017-10-12T01:39:10.808Z,99.99
2017-10-12T01:39:36.930Z,99.99
2017-10-12T01:40:03.051Z,99.99
2017-10-12T01:40:29.178Z,99.99
2017-10-12T01:40:55.295Z,99.99
2017-10-12T01:41:21.418Z,99.99
2017-10-12T01:41:47.542Z,99.99
2017-10-12T01:42:13.660Z,99.99
2017-10-12T01:42:39.788Z,99.99
2017-10-12T01:43:05.913Z,99.99
2017-10-12T01:43:32.028Z,99.99
2017-10-12T01:43:58.162Z,99.99
2017-10-12T01:44:24.276Z,99.99
2017-10-12T01:44:50.393Z,99.99
2017-10-12T01:45:16.519Z,99.99
2017-10-12T01:45:42.645Z,99.99
2017-10-12T01:46:08.782Z,99.99
2017-10-12T01:46:34.907Z,99.99
2017-10-12T01:47:01.028Z,99.99
2017-10-12T01:47:27.154Z,99.99
2017-10-12T01:47:53.268Z,99.99
2017-10-12T01:48:19.398Z,99.99
2017-10-12T01:48:45.517Z,99.99
2017-10-12T01:49:11.643Z,99.99
2017-10-12T01:49:37.758Z,99.99
2017-10-12T01:50:03.876Z,99.99
2017-10-12T01:50:30.001Z,99.99
2017-10-12T01:50:56.135Z,99.99
2017-10-12T01:51:22.252Z,99.99
2017-10-12T01:51:48.378Z,99.99
2017-10-12T01:52:14.502Z,99.99
2017-10-12T01:52:40.615Z,99.99
2017-10-12T01:53:06.745Z,99.99
2017-10-12T01:53:32.861Z,99.99
2017-10-12T01:53:58.980Z,99.99
2017-10-12T01:54:25.100Z,99.99
2017-10-12T01:54:51.230Z,99.99
2017-10-12T01:55:17.351Z,99.99
2017-10-12T01:55:43.479Z,99.99
2017-10-12T01:56:09.607Z,99.99
2017-10-12T01:56:35.721Z,99.99
2017-10-12T01:57:01.849Z,99.99
2017-10-12T01:57:27.962Z,99.99
2017-10-12T01:57:54.089Z,99.99
2017-10-12T01:58:20.213Z,99.99
2017-10-12T01:58:46.355Z,99.99
2017-10-12T01:59:12.473Z,99.99
2017-10-12T01:59:38.601Z,99.99
2017-10-12T02:00:04.719Z,99.99
2017-10-12T02:00:30.862Z,99.99
2017-10-12T02:00:56.983Z,99.99
2017-10-12T02:01:23.103Z,99.99
2017-10-12T02:01:49.226Z,99.99
2017-10-12T02:02:15.349Z,99.99
2017-10-12T02:02:41.472Z,99.99
2017-10-12T02:03:07.593Z,99.99
2017-10-12T02:03:33.727Z,99.99
2017-10-12T02:03:59.840Z,99.99
2017-10-12T02:04:25.963Z,99.99
2017-10-12T02:04:52.093Z,99.99
2017-10-12T02:05:18.211Z,99.99
2017-10-12T02:05:44.331Z,99.99
2017-10-12T02:06:10.480Z,99.99
2017-10-12T02:06:36.602Z,99.99
2017-10-12T02:07:02.719Z,99.99
2017-10-12T02:07:28.840Z,99.99
2017-10-12T02:07:54.967Z,99.99
2017-10-12T02:08:21.090Z,99.99
2017-10-12T02:08:47.213Z,99.99
2017-10-12T02:09:13.328Z,99.99
2017-10-12T02:09:39.454Z,99.99
2017-10-12T02:10:05.576Z,99.99
2017-10-12T02:10:31.695Z,99.99
2017-10-12T02:10:57.817Z,99.99
2017-10-12T02:11:23.939Z,99.99
2017-10-12T02:11:50.062Z,99.99
2017-10-12T02:12:16.184Z,99.99
2017-10-12T02:12:42.313Z,99.99
2017-10-12T02:13:08.431Z,99.99
2017-10-12T02:13:34.557Z,99.99
2017-10-12T02:14:00.677Z,99.99
2017-10-12T02:14:26.791Z,99.99
2017-10-12T02:14:52.923Z,99.99
2017-10-12T02:15:19.073Z,99.99
2017-10-12T02:15:45.190Z,99.99
2017-10-12T02:16:11.325Z,99.99
2017-10-12T02:16:37.444Z,99.99
2017-10-12T02:17:03.561Z,99.99
2017-10-12T02:17:29.688Z,99.99
2017-10-12T02:17:55.804Z,99.99
2017-10-12T02:18:21.928Z,99.99
2017-10-12T02:18:48.046Z,99.99
2017-10-12T02:19:14.176Z,99.99
2017-10-12T02:19:40.292Z,99.99
2017-10-12T02:20:06.442Z,99.99
2017-10-12T02:20:32.587Z,99.99
2017-10-12T02:20:58.696Z,99.99
2017-10-12T02:21:24.817Z,99.99
2017-10-12T02:21:50.946Z,99.99
2017-10-12T02:22:17.072Z,99.99
2017-10-12T02:22:43.190Z,99.99
2017-10-12T02:23:09.307Z,99.99
2017-10-12T02:23:35.438Z,99.99
2017-10-12T02:24:01.562Z,99.99
2017-10-12T02:24:27.681Z,99.99
2017-10-12T02:24:53.811Z,99.99
2017-10-12T02:25:19.927Z,99.99
2017-10-12T02:25:46.051Z,99.99
2017-10-12T02:26:12.171Z,99.99
2017-10-12T02:26:38.291Z,99.99
2017-10-12T02:27:04.417Z,99.99
2017-10-12T02:27:30.536Z,99.99
2017-10-12T02:27:56.683Z,99.99
2017-10-12T02:28:22.805Z,99.99
2017-10-12T02:28:48.925Z,99.99
2017-10-12T02:29:15.052Z,99.99
2017-10-12T02:29:41.172Z,99.99
2017-10-12T02:30:07.293Z,99.99
2017-10-12T02:30:33.418Z,99.99
2017-10-12T02:30:59.543Z,99.99
2017-10-12T02:31:25.660Z,99.99
2017-10-12T02:31:51.792Z,99.99
2017-10-12T02:32:17.911Z,99.99
2017-10-12T02:32:44.031Z,99.99
2017-10-12T02:33:10.153Z,99.99
2017-10-12T02:33:36.275Z,99.99
2017-10-12T02:34:02.402Z,99.99
2017-10-12T02:34:28.515Z,99.99
2017-10-12T02:34:54.662Z,99.99
2017-10-12T02:35:20.788Z,99.99
2017-10-12T02:35:46.909Z,99.99
2017-10-12T02:36:13.035Z,99.99
2017-10-12T02:36:39.161Z,99.99
2017-10-12T02:37:05.284Z,99.99
2017-10-12T02:37:31.412Z,99.99
2017-10-12T02:37:57.523Z,99.99
2017-10-12T02:38:23.652Z,99.99
2017-10-12T02:38:49.761Z,99.99
2017-10-12T02:39:15.888Z,99.99
2017-10-12T02:39:42.004Z,99.99
2017-10-12T02:40:08.135Z,99.99
2017-10-12T02:40:34.266Z,99.99
2017-10-12T02:41:00.387Z,99.99
2017-10-12T02:41:26.518Z,99.99
2017-10-12T02:41:52.631Z,99.99
2017-10-12T02:42:18.760Z,99.99
2017-10-12T02:42:44.871Z,99.99
2017-10-12T02:43:11.024Z,99.99
2017-10-12T02:43:37.172Z,99.99
2017-10-12T02:44:03.289Z,99.99
2017-10-12T02:44:29.413Z,99.99
2017-10-12T02:44:55.536Z,99.99
2017-10-12T02:45:21.651Z,99.99
2017-10-12T02:45:47.780Z,99.99
2017-10-12T02:46:13.897Z,99.99
2017-10-12T02:46:40.048Z,99.99
2017-10-12T02:47:06.169Z,99.99
2017-10-12T02:47:32.290Z,99.99
2017-10-12T02:47:58.416Z,99.99
2017-10-12T02:48:24.558Z,99.99
2017-10-12T02:48:50.674Z,99.99
2017-10-12T02:49:16.793Z,99.99
2017-10-12T02:49:42.918Z,99.99
2017-10-12T02:50:09.063Z,99.99
2017-10-12T02:50:35.180Z,99.99
2017-10-12T02:51:01.307Z,99.99
2017-10-12T02:51:27.426Z,99.99
2017-10-12T02:51:53.549Z,99.99
2017-10-12T02:52:19.698Z,99.99
2017-10-12T02:52:45.816Z,99.99
2017-10-12T02:53:11.967Z,99.99
2017-10-12T02:53:38.088Z,99.99
2017-10-12T02:54:04.214Z,99.99
2017-10-12T02:54:30.356Z,99.99
2017-10-12T02:54:56.476Z,99.99
2017-10-12T02:55:22.619Z,99.99
2017-10-12T02:55:48.741Z,99.99
2017-10-12T02:56:14.860Z,99.99
2017-10-12T02:56:40.991Z,99.99
2017-10-12T02:57:07.115Z,99.99
2017-10-12T02:57:33.257Z,99.99
2017-10-12T02:57:59.375Z,99.99
2017-10-12T02:58:25.495Z,99.99
2017-10-12T02:58:51.621Z,99.99
2017-10-12T02:59:17.738Z,99.99
2017-10-12T02:59:43.864Z,99.99
2017-10-12T03:00:09.988Z,99.99
2017-10-12T03:00:36.112Z,99.99
2017-10-12T03:01:02.228Z,99.99
2017-10-12T03:01:28.374Z,99.99
2017-10-12T03:01:54.500Z,99.99
2017-10-12T03:02:20.629Z,99.99
2017-10-12T03:02:46.750Z,99.99
2017-10-12T03:03:12.877Z,99.99
2017-10-12T03:03:38.991Z,99.99
2017-10-12T03:04:05.112Z,99.99
2017-10-12T03:04:31.235Z,99.99
2017-10-12T03:04:57.378Z,99.99
2017-10-12T03:05:23.504Z,99.99
2017-10-12T03:05:49.617Z,99.99
2017-10-12T03:06:15.752Z,99.99
2017-10-12T03:06:41.861Z,99.99
2017-10-12T03:07:08.008Z,99.99
2017-10-12T03:07:34.130Z,99.99
2017-10-12T03:08:00.250Z,99.99
2017-10-12T03:08:26.372Z,99.99
2017-10-12T03:08:52.497Z,99.99
2017-10-12T03:09:18.621Z,99.99
2017-10-12T03:09:44.737Z,99.99
2017-10-12T03:10:10.867Z,99.99
2017-10-12T03:10:37.003Z,99.99
2017-10-12T03:11:03.130Z,99.99
2017-10-12T03:11:29.249Z,99.99
2017-10-12T03:11:55.369Z,99.99
2017-10-12T03:12:21.495Z,99.99
2017-10-12T03:12:47.612Z,99.99
2017-10-12T03:13:13.740Z,99.99
2017-10-12T03:13:39.861Z,99.99
2017-10-12T03:14:05.987Z,99.99
2017-10-12T03:14:32.109Z,99.99
2017-10-12T03:14:58.231Z,99.99
2017-10-12T03:15:24.356Z,99.99
2017-10-12T03:15:50.479Z,99.99
2017-10-12T03:16:16.608Z,99.99
2017-10-12T03:16:42.727Z,99.99
2017-10-12T03:17:08.848Z,99.99
2017-10-12T03:17:34.988Z,99.99
2017-10-12T03:18:01.121Z,99.99
2017-10-12T03:18:27.266Z,99.99
2017-10-12T03:18:53.390Z,99.99
2017-10-12T03:19:19.513Z,99.99
2017-10-12T03:19:45.636Z,99.99
2017-10-12T03:20:11.753Z,99.99
2017-10-12T03:20:37.879Z,99.99
2017-10-12T03:21:04.002Z,99.99
2017-10-12T03:21:30.121Z,99.99
2017-10-12T03:21:56.252Z,99.99
2017-10-12T03:22:22.373Z,99.99
2017-10-12T03:22:48.498Z,99.99
2017-10-12T03:23:14.622Z,99.99
2017-10-12T03:23:40.756Z,99.99
2017-10-12T03:24:06.887Z,99.99
2017-10-12T03:24:33.052Z,99.99
2017-10-12T03:24:59.171Z,99.99
2017-10-12T03:25:25.299Z,99.99
2017-10-12T03:25:51.425Z,99.99
2017-10-12T03:26:17.548Z,99.99
2017-10-12T03:26:43.670Z,99.99
2017-10-12T03:27:09.787Z,99.99
2017-10-12T03:27:35.912Z,99.99
2017-10-12T03:28:02.064Z,99.99
2017-10-12T03:28:28.188Z,99.99
2017-10-12T03:28:54.306Z,99.99
2017-10-12T03:29:20.429Z,99.99
2017-10-12T03:29:46.557Z,99.99
2017-10-12T03:30:12.674Z,99.99
2017-10-12T03:30:38.793Z,99.99
2017-10-12T03:31:04.913Z,99.99
2017-10-12T03:31:31.036Z,99.99
2017-10-12T03:31:57.165Z,99.99
2017-10-12T03:32:23.280Z,99.99
2017-10-12T03:32:49.403Z,99.99
2017-10-12T03:33:15.530Z,99.99
2017-10-12T03:33:41.652Z,99.99
2017-10-12T03:34:07.770Z,99.99
2017-10-12T03:34:33.893Z,99.99
2017-10-12T03:35:00.037Z,99.99
2017-10-12T03:35:26.165Z,99.99
2017-10-12T03:35:52.282Z,99.99
2017-10-12T03:36:18.402Z,99.99
2017-10-12T03:36:44.528Z,99.91
2017-10-12T03:37:10.646Z,99.99
2017-10-12T03:37:36.773Z,99.72
2017-10-12T03:38:02.891Z,99.72
2017-10-12T03:38:29.018Z,99.96
2017-10-12T03:38:55.141Z,99.99
2017-10-12T03:39:21.256Z,99.99
2017-10-12T03:39:47.389Z,99.52
2017-10-12T03:40:13.511Z,99.48
2017-10-12T03:40:39.634Z,99.38
2017-10-12T03:41:05.755Z,99.87
2017-10-12T03:41:31.877Z,99.48
2017-10-12T03:41:58.003Z,99.81
2017-10-12T03:42:24.120Z,99.62
2017-10-12T03:42:50.244Z,99.62
2017-10-12T03:43:16.367Z,99.52
2017-10-12T03:43:42.492Z,99.33
2017-10-12T03:44:08.612Z,99.52
2017-10-12T03:44:34.730Z,99.52
2017-10-12T03:45:00.858Z,99.62
2017-10-12T03:45:27.022Z,99.52
2017-10-12T03:45:53.147Z,99.05
2017-10-12T03:46:19.273Z,98.91
2017-10-12T03:46:45.393Z,99.91
2017-10-12T03:47:11.522Z,99.43
2017-10-12T03:47:37.646Z,99.62
2017-10-12T03:48:03.757Z,99.43
2017-10-12T03:48:29.884Z,99.72
2017-10-12T03:48:56.001Z,99.81
2017-10-12T03:49:22.124Z,99.52
2017-10-12T03:49:48.245Z,99.62
2017-10-12T03:50:14.366Z,99.43
2017-10-12T03:50:40.493Z,99.62
2017-10-12T03:51:06.613Z,99.72
2017-10-12T03:51:32.738Z,99.43
2017-10-12T03:51:58.859Z,98.95
2017-10-12T03:52:24.984Z,98.86
2017-10-12T03:52:51.108Z,99.05
2017-10-12T03:53:17.225Z,98.95
2017-10-12T03:53:43.346Z,98.95
2017-10-12T03:54:09.483Z,99.05
2017-10-12T03:54:35.608Z,98.86
2017-10-12T03:55:01.727Z,99.05
2017-10-12T03:55:27.875Z,98.95
2017-10-12T03:55:53.995Z,98.95
2017-10-12T03:56:20.114Z,98.86
2017-10-12T03:56:46.238Z,98.95
2017-10-12T03:57:12.358Z,99.24
2017-10-12T03:57:38.485Z,98.95
2017-10-12T03:58:04.602Z,98.66
2017-10-12T03:58:30.730Z,99.15
2017-10-12T03:58:56.847Z,99.05
2017-10-12T03:59:22.970Z,99.15
2017-10-12T03:59:49.103Z,99.15
2017-10-12T04:00:15.236Z,99.24
2017-10-12T04:00:41.356Z,99.05
2017-10-12T04:01:07.482Z,98.95
2017-10-12T04:01:33.601Z,98.38
2017-10-12T04:01:59.738Z,98.47
2017-10-12T04:02:25.862Z,99.15
2017-10-12T04:02:51.980Z,99.24
2017-10-12T04:03:18.099Z,98.86
2017-10-12T04:03:44.223Z,98.86
2017-10-12T04:04:10.351Z,98.76
2017-10-12T04:04:36.467Z,99.05
2017-10-12T04:05:02.597Z,99.24
2017-10-12T04:05:28.707Z,99.24
2017-10-12T04:05:54.836Z,98.28
2017-10-12T04:06:20.963Z,98.19
2017-10-12T04:06:47.079Z,98.57
2017-10-12T04:07:13.202Z,98.19
2017-10-12T04:07:39.320Z,98.19
2017-10-12T04:08:05.446Z,98.38
2017-10-12T04:08:31.564Z,98.19
2017-10-12T04:08:57.690Z,98.19
2017-10-12T04:09:23.816Z,98.38
2017-10-12T04:09:49.935Z,98
2017-10-12T04:10:16.056Z,98.38
2017-10-12T04:10:42.180Z,97.9
2017-10-12T04:11:08.305Z,97.95
2017-10-12T04:11:34.426Z,98.47
2017-10-12T04:12:00.555Z,97.71
2017-10-12T04:12:26.698Z,98
2017-10-12T04:12:52.826Z,98.09
2017-10-12T04:13:18.942Z,98.09
2017-10-12T04:13:45.069Z,97.71
2017-10-12T04:14:11.188Z,97.8
2017-10-12T04:14:37.303Z,97.33
2017-10-12T04:15:03.430Z,97.61
2017-10-12T04:15:29.575Z,97.85
2017-10-12T04:15:55.692Z,97.23
2017-10-12T04:16:21.809Z,96.84
2017-10-12T04:16:47.938Z,97.13
2017-10-12T04:17:14.064Z,97.13
2017-10-12T04:17:40.184Z,96.84
2017-10-12T04:18:06.303Z,96.84
2017-10-12T04:18:32.424Z,97.08
2017-10-12T04:18:58.544Z,97.04
2017-10-12T04:19:24.663Z,97.08
2017-10-12T04:19:50.793Z,97.04
2017-10-12T04:20:16.916Z,97.13
2017-10-12T04:20:43.027Z,96.99
2017-10-12T04:21:09.160Z,96.99
2017-10-12T04:21:35.275Z,97.13
2017-10-12T04:22:01.406Z,97.28
2017-10-12T04:22:27.528Z,96.61
2017-10-12T04:22:53.654Z,96.75
2017-10-12T04:23:19.804Z,96.84
2017-10-12T04:23:45.915Z,96.8
2017-10-12T04:24:12.032Z,96.89
2017-10-12T04:24:38.160Z,96.8
2017-10-12T04:25:04.290Z,96.7
2017-10-12T04:25:30.427Z,96.99
2017-10-12T04:25:56.555Z,96.89
2017-10-12T04:26:22.672Z,96.42
2017-10-12T04:26:48.797Z,96.51
2017-10-12T04:27:14.939Z,96.18
2017-10-12T04:27:41.064Z,95.84
2017-10-12T04:28:07.185Z,96.42
2017-10-12T04:28:33.330Z,96.22
2017-10-12T04:28:59.473Z,96.51
2017-10-12T04:29:25.599Z,96.61
2017-10-12T04:29:51.715Z,96.61
2017-10-12T04:30:17.837Z,96.13
2017-10-12T04:30:43.958Z,95.84
2017-10-12T04:31:10.079Z,96.51
2017-10-12T04:31:36.203Z,96.03
2017-10-12T04:32:02.330Z,96.03
2017-10-12T04:32:28.449Z,96.22
2017-10-12T04:32:54.576Z,95.94
2017-10-12T04:33:20.694Z,95.84
2017-10-12T04:33:46.814Z,95.65
2017-10-12T04:34:12.939Z,96.13
2017-10-12T04:34:39.059Z,95.46
2017-10-12T04:35:05.200Z,96.42
2017-10-12T04:35:31.329Z,96.03
2017-10-12T04:35:57.457Z,95.46
2017-10-12T04:36:23.585Z,95.84
2017-10-12T04:36:49.708Z,95.84
2017-10-12T04:37:15.833Z,95.94
2017-10-12T04:37:41.995Z,95.75
2017-10-12T04:38:08.143Z,95.46
2017-10-12T04:38:34.261Z,95.17
2017-10-12T04:39:00.377Z,95.27
2017-10-12T04:39:26.508Z,95.75
2017-10-12T04:39:52.622Z,95.36
2017-10-12T04:40:18.750Z,95.17
2017-10-12T04:40:44.863Z,95.46
2017-10-12T04:41:10.994Z,95.27
2017-10-12T04:41:37.118Z,95.46
2017-10-12T04:42:03.241Z,95.46
2017-10-12T04:42:29.363Z,95.27
2017-10-12T04:42:55.485Z,95.46
2017-10-12T04:43:21.626Z,95.07
2017-10-12T04:43:47.755Z,95.07
2017-10-12T04:44:13.900Z,94.89
2017-10-12T04:44:40.017Z,95.36
2017-10-12T04:45:06.138Z,94.79
2017-10-12T04:45:32.259Z,94.5
2017-10-12T04:45:58.383Z,94.79
2017-10-12T04:46:24.503Z,94.31
2017-10-12T04:46:50.630Z,94.79
2017-10-12T04:47:16.747Z,94.98
2017-10-12T04:47:42.866Z,95.27
2017-10-12T04:48:08.990Z,95.36
2017-10-12T04:48:35.111Z,95.36
2017-10-12T04:49:01.231Z,95.17
2017-10-12T04:49:27.354Z,95.36
2017-10-12T04:49:53.498Z,94.89
2017-10-12T04:50:19.623Z,95.27
2017-10-12T04:50:45.750Z,95.56
2017-10-12T04:51:11.876Z,95.56
2017-10-12T04:51:37.995Z,94.79
2017-10-12T04:52:04.118Z,94.89
2017-10-12T04:52:30.235Z,94.98
2017-10-12T04:52:56.362Z,95.17
2017-10-12T04:53:22.479Z,94.79
2017-10-12T04:53:48.600Z,94.41
2017-10-12T04:54:14.728Z,95.07
2017-10-12T04:54:40.868Z,94.5
2017-10-12T04:55:06.998Z,94.89
2017-10-12T04:55:33.116Z,94.79
2017-10-12T04:55:59.267Z,94.31
2017-10-12T04:56:25.387Z,94.31
2017-10-12T04:56:51.504Z,94.5
2017-10-12T04:57:17.634Z,94.7
2017-10-12T04:57:43.752Z,94.6
2017-10-12T04:58:09.885Z,94.89
2017-10-12T04:58:36.005Z,94.31
2017-10-12T04:59:02.123Z,94.7
2017-10-12T04:59:28.244Z,94.5
2017-10-12T04:59:54.363Z,94.31
2017-10-12T05:00:20.490Z,94.7
2017-10-12T05:00:46.615Z,94.5
2017-10-12T05:01:12.733Z,94.98
2017-10-12T05:01:38.861Z,94.98
2017-10-12T05:02:04.981Z,94.98
2017-10-12T05:02:31.100Z,95.27
2017-10-12T05:02:57.225Z,94.98
2017-10-12T05:03:23.345Z,95.27
2017-10-12T05:03:49.470Z,95.27
2017-10-12T05:04:15.583Z,94.98
2017-10-12T05:04:41.711Z,95.17
2017-10-12T05:05:07.865Z,95.27
2017-10-12T05:05:33.980Z,95.17
2017-10-12T05:06:00.123Z,95.27
2017-10-12T05:06:26.243Z,94.79
2017-10-12T05:06:52.368Z,95.17
2017-10-12T05:07:18.487Z,95.07
2017-10-12T05:07:44.614Z,94.98
2017-10-12T05:08:10.741Z,94.5
2017-10-12T05:08:36.861Z,94.7
2017-10-12T05:09:02.991Z,94.6
2017-10-12T05:09:29.106Z,94.41
2017-10-12T05:09:55.231Z,94.6
2017-10-12T05:10:21.378Z,94.41
2017-10-12T05:10:47.502Z,94.6
2017-10-12T05:11:13.624Z,94.89
2017-10-12T05:11:39.790Z,94.6
2017-10-12T05:12:05.905Z,94.89
2017-10-12T05:12:32.032Z,95.07
2017-10-12T05:12:58.152Z,94.21
2017-10-12T05:13:24.279Z,94.6
2017-10-12T05:13:50.394Z,94.79
2017-10-12T05:14:16.522Z,94.21
2017-10-12T05:14:42.668Z,94.21
2017-10-12T05:15:08.784Z,94.41
2017-10-12T05:15:34.911Z,94.6
2017-10-12T05:16:01.030Z,94.5
2017-10-12T05:16:27.151Z,94.31
2017-10-12T05:16:53.275Z,94.98
2017-10-12T05:17:19.402Z,94.79
2017-10-12T05:17:45.520Z,94.6
2017-10-12T05:18:11.640Z,94.79
2017-10-12T05:18:37.769Z,94.31
2017-10-12T05:19:03.888Z,94.41
2017-10-12T05:19:30.038Z,94.12
2017-10-12T05:19:56.159Z,94.02
2017-10-12T05:20:22.282Z,93.74
2017-10-12T05:20:48.402Z,94.02
2017-10-12T05:21:14.519Z,94.12
2017-10-12T05:21:40.648Z,94.12
2017-10-12T05:22:06.775Z,94.21
2017-10-12T05:22:32.900Z,94.12
2017-10-12T05:22:59.019Z,93.93
2017-10-12T05:23:25.143Z,93.84
2017-10-12T05:23:51.260Z,94.12
2017-10-12T05:24:17.378Z,94.02
2017-10-12T05:24:43.510Z,93.93
2017-10-12T05:25:09.656Z,94.12
2017-10-12T05:25:35.770Z,93.93
2017-10-12T05:26:01.892Z,93.64
2017-10-12T05:26:28.016Z,94.12
2017-10-12T05:26:54.156Z,93.84
2017-10-12T05:27:20.278Z,94.17
2017-10-12T05:27:46.407Z,94.02
2017-10-12T05:28:12.523Z,93.84
2017-10-12T05:28:38.650Z,94.12
2017-10-12T05:29:04.800Z,93.84
2017-10-12T05:29:30.915Z,94.31
2017-10-12T05:29:57.039Z,93.93
2017-10-12T05:30:23.162Z,94.07
2017-10-12T05:30:49.301Z,94.02
2017-10-12T05:31:15.428Z,94.02
2017-10-12T05:31:41.544Z,94.02
2017-10-12T05:32:07.663Z,93.84
2017-10-12T05:32:33.789Z,93.55
2017-10-12T05:32:59.908Z,93.26
2017-10-12T05:33:26.034Z,94.17
2017-10-12T05:33:52.151Z,93.93
2017-10-12T05:34:18.275Z,93.79
2017-10-12T05:34:44.404Z,93.74
2017-10-12T05:35:10.522Z,94.02
2017-10-12T05:35:36.642Z,93.74
2017-10-12T05:36:02.769Z,94.02
2017-10-12T05:36:28.896Z,94.31
2017-10-12T05:36:55.035Z,94.12
2017-10-12T05:37:21.159Z,93.55
2017-10-12T05:37:47.280Z,93.84